Cove Gap, West Virginia
Current Conditions -  °F | °C
As of 9:05 AM on Tuesday 27 Jan 2015 (Local Time) from KHTS Reporting Station
Broken Clouds Broken Clouds  
Wind Chill: 10°   Ceiling: 7000
Heat Index: 17°   Visibility: 8mi
Dew Point: 13°   Wind: 5mph
Humidity: 84%   Direction: 350°N
Pressure: 30.01"   Gusts: NA
Location:  38.0696°N, 82.2646°W
Report Text: KHTS 271405Z 35004KT 8SM BKN070 M08/M11 A3001 RMK AO2 T10831106
Loading
Personal Weather Stations






























Interactive Weather Map New forecast layout! Learn more

10-Day Weather Forecast

Advertisements
Track Severe Weather on mobile